หน้าหลัก
METAR-TAF:

METAR-TAF

ท่าอากาศยาน :

Tiree, สกอตแลนด์

ละติจูด: 56-30N, ลองจิจูด: 006-53W, ความสูง: 12 ม.

การสังเกตสภาพอากาศปัจจุบัน

รายงานได้ทำขึ้นเมื่อ 10 ชั่วโมงและ 15 นาทีที่แล้ว ณ เวลา 16:50 UTC
ลม 4 นอตจากตะวันตก/ตะวันตกเฉียงใต้
อุณหภูมิ 11°C
ความชื้น 62%
ความกดอากาศ 1018 hPa
ทัศนวิสัย 10 กม. หรือมากกว่า
มีเมฆเป็นส่วนมากเว้นเป็นระยะที่ความสูง 4200 ฟุต

METAR: EGPU 121650Z 24004KT 9999 BKN042 11/04 Q1018

เวลา: 04:05 (03:05 UTC)

การพยากรณ์

รายงานได้ทำขึ้นเมื่อ 13 ชั่วโมงและ 5 นาทีที่แล้ว ณ เวลา 14:00 UTC
การพยากรณ์มีผลตั้งแต่วันที่ 12 ณ เวลา 15 UTC จนถึงวันที่ 12 ณ เวลา 18 UTC
ลม 5 นอตจากใต้/ตะวันตกเฉียงใต้
ทัศนวิสัย 10 กม. หรือมากกว่า
มีเมฆกระจายเป็นบางส่วนที่ความสูง 3500 ฟุต

TAF: EGPU 121400Z 1215/1218 20005KT 9999 SCT035

สังเกตการณ์สภาพอากาศและพยากรณ์อากาศของสนามบินมากกว่า 4000 แห่ง (รายงาน METAR และ TAF).

สถานีที่ดูได้จะแสดงไว้ด้วยจุดสีเหลืองและสีแดงบนแผนที่.

เลื่อนเมาส์ไปเหนือจุดเพื่อดูชื่อสถานี.

แล้วคลิกเพื่อดูสังเกตการณ์และการพยากรณ์สภาพอากาศ.

ในการเปลี่ยนแผนที่: คลิกที่ปุ่มสีเขียวที่มีกากบาทสีดำเพื่อซูมเข้า; ที่ปุ่มสีเขียวที่มีขีดเพื่อซูมออก; หรือที่ลูกศรสีเขียวเพื่อไปยังแผนที่ที่อยู่ติดกัน.


METAR-TAF: